Time;durP1;ratioP1;P1;durP2;ratioP2;P2;SDS_P1;SDS_P2;PMS_P1;PMS_P2;Temp;Humidity;BMP_temperature;BMP_pressure;BME280_temperature;BME280_humidity;BME280_pressure;Samples;Min_cycle;Max_cycle;Signal;HPM_P1;HPM_P2
2022/07/18 00:01:37;;;;;;;;;14.67;13.33;;;;;26.65;25.40;101904.81;5079194;27;45710;-68
2022/07/18 00:04:02;;;;;;;;;16.00;15.00;;;;;26.61;25.36;101903.44;5079253;27;70136;-69
2022/07/18 00:06:27;;;;;;;;;12.33;9.67;;;;;26.58;25.66;101902.75;5078701;27;72877;-69
2022/07/18 00:08:53;;;;;;;;;9.67;9.67;;;;;26.57;25.17;101902.91;5078999;27;72489;-69
2022/07/18 00:11:19;;;;;;;;;16.33;13.00;;;;;26.55;25.66;101900.31;5079876;27;45443;-69
2022/07/18 00:13:44;;;;;;;;;13.33;12.00;;;;;26.52;26.42;101897.91;5079923;27;45659;-69
2022/07/18 00:16:10;;;;;;;;;14.00;12.33;;;;;26.48;26.68;101899.25;5078834;27;70360;-69
2022/07/18 00:18:35;;;;;;;;;15.00;15.00;;;;;26.46;26.77;101901.25;5078687;27;70612;-68
2022/07/18 00:21:00;;;;;;;;;9.67;8.33;;;;;26.43;26.74;101896.13;5079599;27;50256;-68
2022/07/18 00:23:26;;;;;;;;;14.00;11.00;;;;;26.40;26.45;101896.44;5078769;27;68497;-68
2022/07/18 00:25:51;;;;;;;;;7.33;5.00;;;;;26.38;26.78;101895.72;5078391;27;67946;-68
2022/07/18 00:28:16;;;;;;;;;14.67;14.67;;;;;26.33;26.48;101898.91;5069968;28;71809;-68
2022/07/18 00:30:42;;;;;;;;;12.00;12.00;;;;;26.30;27.18;101896.50;5079380;27;45512;-68
2022/07/18 00:33:07;;;;;;;;;15.00;12.00;;;;;26.27;27.03;101901.38;5079242;27;45367;-68
2022/07/18 00:35:32;;;;;;;;;12.67;12.67;;;;;26.24;26.98;101895.25;5079384;27;46020;-68
2022/07/18 00:37:58;;;;;;;;;13.00;11.33;;;;;26.22;26.96;101900.00;5079295;27;45394;-68
2022/07/18 00:40:23;;;;;;;;;11.67;11.67;;;;;26.19;26.98;101894.84;5078380;27;45719;-69
2022/07/18 00:42:49;;;;;;;;;11.33;10.67;;;;;26.17;27.05;101885.13;5077771;27;70993;-69
2022/07/18 00:45:14;;;;;;;;;18.33;13.33;;;;;26.14;26.97;101888.13;5077763;27;65734;-68
2022/07/18 00:47:40;;;;;;;;;12.00;12.00;;;;;26.11;27.63;101891.16;5079319;27;45358;-69
2022/07/18 00:50:07;;;;;;;;;14.00;13.67;;;;;26.08;26.93;101895.91;5079173;28;45524;-69
2022/07/18 00:52:33;;;;;;;;;13.00;12.33;;;;;26.05;27.85;101893.50;5079178;27;45379;-68
2022/07/18 00:54:59;;;;;;;;;15.67;14.67;;;;;26.03;27.26;101894.63;5078165;27;46346;-68
2022/07/18 00:57:25;;;;;;;;;15.33;15.33;;;;;25.99;27.00;101887.78;5079056;27;45339;-68
2022/07/18 01:02:34;;;;;;;;;18.00;16.33;;;;;25.94;27.87;101888.22;5078039;27;45478;-69
2022/07/18 01:05:00;;;;;;;;;17.00;15.67;;;;;25.91;27.24;101874.91;5078567;27;46004;-69
2022/07/18 01:07:25;;;;;;;;;15.33;13.33;;;;;25.91;27.09;101880.34;5077810;27;72180;-69
2022/07/18 01:09:50;;;;;;;;;20.33;18.33;;;;;25.88;27.73;101876.06;5078166;28;66443;-68
2022/07/18 01:12:16;;;;;;;;;13.33;9.33;;;;;25.86;27.98;101883.50;5081807;27;59076;-68
2022/07/18 01:14:41;;;;;;;;;17.67;13.67;;;;;25.85;28.19;101884.56;5080474;28;71342;-69
2022/07/18 01:17:18;;;;;;;;;16.67;16.00;;;;;25.80;27.75;101881.41;5081460;27;72815;-68
2022/07/18 01:19:44;;;;;;;;;17.67;15.00;;;;;25.78;27.68;101879.84;5082649;27;45393;-68
2022/07/18 01:22:11;;;;;;;;;16.00;15.00;;;;;25.76;28.00;101875.41;5082276;27;45362;-68
2022/07/18 01:24:37;;;;;;;;;12.00;11.00;;;;;25.74;28.38;101893.75;5082594;27;45343;-69
2022/07/18 01:27:02;;;;;;;;;17.33;12.67;;;;;25.70;27.68;101891.50;5074646;27;46571;-69
2022/07/18 01:29:28;;;;;;;;;19.00;15.00;;;;;25.68;28.05;101896.22;5082282;27;45298;-68
2022/07/18 01:31:53;;;;;;;;;12.00;11.00;;;;;25.65;28.41;101899.25;5081502;27;69897;-69
2022/07/18 01:34:22;;;;;;;;;15.33;13.00;;;;;25.59;27.70;101896.13;5081108;27;74373;-69
2022/07/18 01:36:47;;;;;;;;;16.33;14.67;;;;;25.53;27.79;101883.09;5082774;27;45414;-69
2022/07/18 01:39:13;;;;;;;;;14.67;13.67;;;;;25.50;27.24;101888.84;5081940;27;67634;-69
2022/07/18 01:41:38;;;;;;;;;16.33;14.67;;;;;25.49;27.72;101878.97;5081252;27;64989;-69
2022/07/18 01:44:03;;;;;;;;;17.33;13.00;;;;;25.45;28.32;101877.56;5082670;27;46934;-69
2022/07/18 01:46:29;;;;;;;;;16.67;14.00;;;;;25.42;28.29;101872.38;5082455;28;45397;-69
2022/07/18 01:48:54;;;;;;;;;14.67;14.67;;;;;25.41;27.85;101873.41;5081907;27;64779;-69
2022/07/18 01:51:19;;;;;;;;;11.67;11.67;;;;;25.41;28.07;101874.25;5081566;27;62625;-69
2022/07/18 01:53:54;;;;;;;;;15.67;15.00;;;;;25.41;28.12;101867.97;5081728;27;49925;-69
2022/07/18 01:56:19;;;;;;;;;15.00;14.00;;;;;25.37;27.76;101861.97;5082905;27;45346;-68
2022/07/18 01:58:44;;;;;;;;;16.67;14.33;;;;;25.33;28.13;101857.78;5080978;27;68068;-68
2022/07/18 02:01:10;;;;;;;;;12.00;11.67;;;;;25.31;28.20;101859.78;5081746;27;57918;-68
2022/07/18 02:03:35;;;;;;;;;14.33;12.00;;;;;25.27;28.50;101847.47;5080779;27;71136;-67
2022/07/18 02:06:00;;;;;;;;;14.00;14.00;;;;;25.24;28.27;101848.63;5080908;27;68464;-67
2022/07/18 02:08:26;;;;;;;;;15.00;12.33;;;;;25.22;28.16;101849.78;5082506;27;46957;-67
2022/07/18 02:10:51;;;;;;;;;15.67;13.67;;;;;25.22;28.35;101844.34;5082546;27;45301;-68
2022/07/18 02:13:17;;;;;;;;;15.00;15.00;;;;;25.19;28.47;101845.50;5081215;27;75067;-69
2022/07/18 02:15:42;;;;;;;;;13.33;11.33;;;;;25.18;28.70;101849.22;5082407;27;45346;-68
2022/07/18 02:18:08;;;;;;;;;14.00;11.33;;;;;25.16;28.77;101853.09;5082407;27;45624;-68
2022/07/18 02:20:33;;;;;;;;;12.00;12.00;;;;;25.14;28.67;101861.41;5081999;27;45550;-68
2022/07/18 02:22:58;;;;;;;;;11.33;11.33;;;;;25.10;28.88;101855.41;5082198;27;45367;-68
2022/07/18 02:25:24;;;;;;;;;14.33;13.00;;;;;25.05;28.61;101849.53;5081285;27;70710;-68
2022/07/18 02:27:49;;;;;;;;;16.33;13.00;;;;;25.02;28.38;101857.16;5081748;27;63360;-67
2022/07/18 02:30:14;;;;;;;;;14.33;12.67;;;;;24.97;28.75;101854.88;5081138;27;67452;-68
2022/07/18 02:32:40;;;;;;;;;17.67;12.33;;;;;24.93;28.83;101859.72;5080861;28;73611;-68
2022/07/18 02:35:07;;;;;;;;;15.00;13.33;;;;;24.92;28.79;101851.72;5081737;27;45397;-67
2022/07/18 02:37:32;;;;;;;;;18.67;17.00;;;;;24.91;28.88;101859.03;5082023;27;45436;-68
2022/07/18 02:39:58;;;;;;;;;17.67;16.33;;;;;24.89;28.82;101862.91;5081993;27;45388;-68
2022/07/18 02:42:23;;;;;;;;;14.33;14.33;;;;;24.84;29.42;101855.16;5081508;27;45468;-68
2022/07/18 02:44:48;;;;;;;;;22.33;19.67;;;;;24.82;29.04;101853.59;5081496;27;64504;-68
2022/07/18 02:47:14;;;;;;;;;18.33;14.67;;;;;24.80;29.37;101851.03;5081006;27;66348;-67
2022/07/18 02:49:39;;;;;;;;;18.67;14.33;;;;;24.73;29.39;101853.47;5081136;27;69822;-68
2022/07/18 02:52:07;;;;;;;;;26.33;21.00;;;;;24.67;29.13;101854.03;5080470;27;74841;-68
2022/07/18 02:54:35;;;;;;;;;23.33;21.00;;;;;24.66;29.24;101860.47;5081846;27;45377;-68
2022/07/18 02:57:00;;;;;;;;;19.33;17.00;;;;;24.65;29.46;101871.50;5081541;27;45533;-68
2022/07/18 02:59:26;;;;;;;;;22.00;18.33;;;;;24.60;29.57;101872.75;5081969;28;45430;-68
2022/07/18 03:01:52;;;;;;;;;22.33;20.00;;;;;24.55;29.69;101872.34;5080943;27;46256;-68
2022/07/18 03:04:18;;;;;;;;;22.33;20.67;;;;;24.50;29.48;101868.34;5081791;27;45362;-68
2022/07/18 03:06:44;;;;;;;;;22.67;20.00;;;;;24.44;29.75;101867.91;5081568;27;45402;-68
2022/07/18 03:09:10;;;;;;;;;26.00;21.33;;;;;24.42;29.44;101880.78;5081665;27;45413;-68
2022/07/18 03:11:35;;;;;;;;;22.00;20.67;;;;;24.40;29.86;101868.31;5081081;28;46175;-68
2022/07/18 03:14:01;;;;;;;;;26.33;23.67;;;;;24.40;29.76;101869.16;5079865;27;71972;-68
2022/07/18 03:16:26;;;;;;;;;30.00;23.33;;;;;24.37;29.66;101861.31;5080712;27;63696;-68
2022/07/18 03:18:51;;;;;;;;;26.33;23.00;;;;;24.36;29.70;101851.44;5081843;27;45346;-68
2022/07/18 03:21:17;;;;;;;;;23.33;20.67;;;;;24.37;29.76;101846.88;5079195;28;63272;-68
2022/07/18 03:23:42;;;;;;;;;22.33;22.33;;;;;24.36;29.96;101851.44;5081058;27;48894;-68
2022/07/18 03:26:07;;;;;;;;;21.00;20.33;;;;;24.36;30.02;101851.44;5080762;28;62449;-68
2022/07/18 03:28:33;;;;;;;;;20.33;20.33;;;;;24.35;30.05;101855.13;5080019;27;65785;-68
2022/07/18 03:30:58;;;;;;;;;16.67;15.33;;;;;24.36;30.14;101850.56;5080591;27;45357;-68
2022/07/18 03:33:25;;;;;;;;;18.67;18.67;;;;;24.35;30.08;101843.41;5080348;27;45331;-68
2022/07/18 03:35:50;;;;;;;;;17.67;16.00;;;;;24.33;30.12;101837.28;5080904;27;45370;-68
2022/07/18 03:38:15;;;;;;;;;17.00;17.00;;;;;24.31;29.97;101837.41;5080471;27;45518;-67
2022/07/18 03:40:41;;;;;;;;;17.67;15.00;;;;;24.30;30.20;101834.81;5080236;27;70830;-67
2022/07/18 03:43:06;;;;;;;;;13.00;12.67;;;;;24.28;30.20;101848.56;5079621;27;45452;-67
2022/07/18 03:45:31;;;;;;;;;15.67;15.67;;;;;24.27;30.65;101845.00;5081060;27;45369;-67
2022/07/18 03:47:57;;;;;;;;;16.00;15.33;;;;;24.25;30.50;101833.41;5080115;27;59751;-67
2022/07/18 03:50:22;;;;;;;;;19.33;18.67;;;;;24.23;30.50;101829.94;5080230;27;67240;-67
2022/07/18 03:52:47;;;;;;;;;16.67;15.33;;;;;24.20;30.78;101845.72;5079285;27;73267;-67
2022/07/18 03:55:14;;;;;;;;;19.00;16.67;;;;;24.15;30.76;101848.00;5080272;27;63101;-69
2022/07/18 03:57:39;;;;;;;;;13.67;13.00;;;;;24.09;31.07;101846.66;5080713;27;45781;-67
2022/07/18 04:00:09;;;;;;;;;15.67;15.00;;;;;24.01;30.97;101849.25;5079933;27;54684;-67
2022/07/18 04:02:38;;;;;;;;;14.00;13.00;;;;;23.95;31.07;101856.94;5080866;27;45421;-69
2022/07/18 04:05:04;;;;;;;;;13.33;12.00;;;;;23.87;31.46;101864.03;5081088;28;45414;-67
2022/07/18 04:07:29;;;;;;;;;13.33;11.67;;;;;23.80;31.29;101852.88;5079449;27;45599;-67
2022/07/18 04:09:54;;;;;;;;;15.67;14.00;;;;;23.74;31.19;101854.28;5079502;27;75552;-67
2022/07/18 04:12:20;;;;;;;;;13.67;13.00;;;;;23.73;31.58;101855.28;5079393;28;73293;-67
2022/07/18 04:14:45;;;;;;;;;14.00;12.00;;;;;23.71;31.13;101856.41;5079787;27;61166;-67
2022/07/18 04:17:10;;;;;;;;;17.33;16.00;;;;;23.70;31.14;101851.97;5079610;27;70140;-67
2022/07/18 04:19:36;;;;;;;;;15.67;15.67;;;;;23.70;31.53;101843.81;5079933;27;66996;-68
2022/07/18 04:22:01;;;;;;;;;15.33;15.00;;;;;23.70;31.17;101854.69;5079217;27;69534;-67
2022/07/18 04:24:26;;;;;;;;;17.33;16.00;;;;;23.71;31.12;101845.56;5080511;27;45889;-67
2022/07/18 04:26:52;;;;;;;;;17.00;16.33;;;;;23.72;30.98;101839.97;5079526;27;68104;-67
2022/07/18 04:29:17;;;;;;;;;18.00;15.33;;;;;23.72;31.20;101829.09;5079155;27;72241;-68
2022/07/18 04:31:42;;;;;;;;;12.67;12.67;;;;;23.75;30.89;101828.84;5079506;27;67694;-68
2022/07/18 04:34:08;;;;;;;;;15.00;15.00;;;;;23.77;31.23;101828.72;5080104;27;48059;-68
2022/07/18 04:36:33;;;;;;;;;17.00;16.67;;;;;23.78;30.89;101825.84;5079449;27;65159;-69
2022/07/18 04:38:58;;;;;;;;;15.00;13.67;;;;;23.79;30.87;101826.69;5078527;27;74707;-68
2022/07/18 04:41:24;;;;;;;;;15.67;13.00;;;;;23.81;31.03;101815.72;5080371;27;47732;-69
2022/07/18 04:43:52;;;;;;;;;14.33;14.33;;;;;23.81;31.01;101816.56;5079809;27;45456;-68
2022/07/18 04:46:17;;;;;;;;;16.67;15.33;;;;;23.84;31.27;101818.16;5080513;27;45397;-68
2022/07/18 04:48:42;;;;;;;;;18.67;15.00;;;;;23.84;31.10;101813.56;5079884;27;51536;-69
2022/07/18 04:51:08;;;;;;;;;16.00;16.00;;;;;23.83;31.06;101801.00;5079177;27;67624;-69
2022/07/18 04:53:33;;;;;;;;;18.33;16.33;;;;;23.85;31.24;101793.56;5078336;27;68158;-69
2022/07/18 04:55:58;;;;;;;;;11.00;8.33;;;;;23.86;31.06;101789.00;5080196;27;45432;-68
2022/07/18 04:58:24;;;;;;;;;16.00;15.00;;;;;23.86;31.20;101789.84;5079943;27;46258;-69
2022/07/18 05:00:49;;;;;;;;;15.33;13.67;;;;;23.88;31.02;101797.84;5079007;27;62348;-70
2022/07/18 05:03:15;;;;;;;;;17.00;15.00;;;;;23.91;31.57;101793.03;5079945;27;45412;-69
2022/07/18 05:05:40;;;;;;;;;20.33;14.00;;;;;23.94;31.55;101794.59;5079707;27;45474;-69
2022/07/18 05:08:06;;;;;;;;;15.00;14.00;;;;;23.95;31.61;101782.75;5079650;28;47406;-69
2022/07/18 05:10:32;;;;;;;;;12.33;12.33;;;;;23.94;31.83;101768.28;5079165;27;45339;-69
2022/07/18 05:12:57;;;;;;;;;12.67;12.67;;;;;23.95;30.99;101761.88;5072171;27;45314;-69
2022/07/18 05:15:23;;;;;;;;;13.00;13.00;;;;;23.99;31.88;101764.28;5068819;28;45327;-68
2022/07/18 05:17:49;;;;;;;;;16.00;14.67;;;;;24.01;31.80;101762.31;5071845;27;45557;-69
2022/07/18 05:20:17;;;;;;;;;13.33;13.00;;;;;24.03;32.07;101749.44;5074335;27;45639;-69
2022/07/18 05:22:44;;;;;;;;;16.00;14.67;;;;;24.06;32.05;101754.56;5071611;28;45460;-68
2022/07/18 05:25:10;;;;;;;;;11.00;10.00;;;;;24.09;32.07;101771.47;5078947;27;45416;-69
2022/07/18 05:27:36;;;;;;;;;16.67;11.67;;;;;24.10;33.03;101791.34;5079539;27;46437;-69
2022/07/18 05:30:05;;;;;;;;;10.67;10.67;;;;;24.06;32.76;101804.34;5076917;27;45544;-69
2022/07/18 05:32:31;;;;;;;;;13.67;12.00;;;;;24.00;32.77;101812.19;5079324;27;45519;-69
2022/07/18 05:34:56;;;;;;;;;13.67;10.67;;;;;23.95;32.81;101816.19;5078653;27;64081;-68
2022/07/18 05:37:22;;;;;;;;;11.33;11.33;;;;;23.96;32.44;101822.47;5078535;27;68374;-69
2022/07/18 05:39:48;;;;;;;;;17.00;14.00;;;;;23.91;32.73;101814.75;5078609;27;57496;-68
2022/07/18 05:42:13;;;;;;;;;14.00;12.00;;;;;23.86;32.69;101817.00;5079300;27;45472;-68
2022/07/18 05:44:38;;;;;;;;;13.33;10.67;;;;;23.87;32.66;101816.00;5078514;27;67874;-69
2022/07/18 05:47:03;;;;;;;;;14.33;13.67;;;;;23.89;32.68;101818.59;5078687;27;70411;-68
2022/07/18 05:49:29;;;;;;;;;10.67;9.67;;;;;23.93;32.64;101822.78;5078480;27;68629;-69
2022/07/18 05:51:54;;;;;;;;;10.67;8.33;;;;;23.96;32.65;101825.19;5078900;27;45350;-69
2022/07/18 05:54:20;;;;;;;;;10.67;9.00;;;;;23.98;32.17;101825.06;5078455;27;45388;-68
2022/07/18 05:56:47;;;;;;;;;9.00;9.00;;;;;24.01;32.19;101831.06;5080107;27;46151;-68
2022/07/18 05:59:12;;;;;;;;;10.33;8.33;;;;;24.07;31.87;101818.78;5081941;27;45514;-68
2022/07/18 06:01:38;;;;;;;;;11.67;9.67;;;;;24.16;31.94;101812.50;5081817;27;60946;-68
2022/07/18 06:04:03;;;;;;;;;12.00;11.00;;;;;24.26;31.58;101809.78;5081933;27;65171;-67
2022/07/18 06:06:29;;;;;;;;;8.67;7.00;;;;;24.35;31.40;101811.63;5082242;27;45419;-68
2022/07/18 06:08:54;;;;;;;;;6.67;6.67;;;;;24.41;31.50;101808.34;5082390;27;45401;-67
2022/07/18 06:11:19;;;;;;;;;10.00;8.67;;;;;24.49;31.35;101809.50;5082851;27;45284;-67
2022/07/18 06:13:45;;;;;;;;;6.00;6.00;;;;;24.58;31.17;101817.66;5081521;27;69702;-68
2022/07/18 06:16:10;;;;;;;;;10.00;10.00;;;;;24.68;30.85;101822.25;5082623;27;45204;-67
2022/07/18 06:18:35;;;;;;;;;8.33;8.33;;;;;24.74;31.29;101817.13;5081732;27;71198;-68
2022/07/18 06:21:02;;;;;;;;;7.00;7.00;;;;;24.79;30.94;101804.94;5082065;27;61679;-68
2022/07/18 06:23:28;;;;;;;;;11.33;9.67;;;;;24.83;30.99;101807.19;5082295;27;45627;-67
2022/07/18 06:25:54;;;;;;;;;8.67;7.33;;;;;24.91;30.79;101807.34;5082425;27;47015;-68
2022/07/18 06:28:19;;;;;;;;;6.67;6.67;;;;;24.98;30.87;101804.88;5082444;27;45314;-68
2022/07/18 06:30:44;;;;;;;;;5.00;5.00;;;;;25.02;30.93;101817.19;5082335;27;45587;-68
2022/07/18 06:33:10;;;;;;;;;11.33;9.67;;;;;25.07;30.79;101809.44;5081511;27;63769;-68
2022/07/18 06:35:36;;;;;;;;;10.33;9.00;;;;;25.13;30.46;101821.59;5082279;27;46871;-68
2022/07/18 06:38:01;;;;;;;;;10.67;8.33;;;;;25.19;30.73;101823.72;5081135;27;69355;-67
2022/07/18 06:40:26;;;;;;;;;9.67;9.67;;;;;25.29;30.80;101822.81;5081584;27;58033;-67
2022/07/18 06:42:52;;;;;;;;;8.33;8.33;;;;;25.37;30.39;101825.69;5082250;27;45449;-69
2022/07/18 06:45:18;;;;;;;;;0.33;0.33;;;;;25.42;30.00;101815.22;5081768;27;52957;-69
2022/07/18 06:47:44;;;;;;;;;8.00;7.67;;;;;25.50;29.99;101812.59;5080920;28;71882;-68
2022/07/18 06:50:11;;;;;;;;;11.33;9.33;;;;;25.61;30.14;101814.25;5082005;27;45602;-68
2022/07/18 06:52:38;;;;;;;;;6.33;6.00;;;;;25.73;30.34;101812.19;5081967;27;45319;-69
2022/07/18 06:55:04;;;;;;;;;6.67;6.67;;;;;25.87;30.32;101822.56;5081810;27;46215;-69
2022/07/18 06:57:29;;;;;;;;;8.00;8.00;;;;;26.01;30.21;101829.38;5081701;27;45464;-69
2022/07/18 06:59:55;;;;;;;;;8.00;8.00;;;;;26.14;29.28;101830.88;5082131;28;45296;-69
2022/07/18 07:02:20;;;;;;;;;8.67;8.33;;;;;26.25;29.97;101830.66;5081863;28;45457;-70
2022/07/18 07:04:45;;;;;;;;;9.33;6.00;;;;;26.41;29.03;101836.28;5081337;27;52017;-70
2022/07/18 07:07:11;;;;;;;;;6.33;6.33;;;;;26.54;28.71;101835.00;5079804;27;58629;-69
2022/07/18 07:09:36;;;;;;;;;4.33;4.33;;;;;26.69;28.50;101827.13;5081714;27;45243;-70
2022/07/18 07:12:01;;;;;;;;;8.33;6.33;;;;;26.87;28.50;101821.66;5081608;27;45332;-70
2022/07/18 07:14:27;;;;;;;;;11.00;6.67;;;;;27.08;28.26;101824.03;5080980;27;64612;-70
2022/07/18 07:16:52;;;;;;;;;8.67;7.00;;;;;27.33;27.83;101821.44;5081186;27;57822;-71
2022/07/18 07:19:17;;;;;;;;;9.67;9.00;;;;;27.59;27.87;101815.06;5080974;27;61772;-71
2022/07/18 07:21:43;;;;;;;;;5.33;5.33;;;;;27.87;27.95;101813.84;5081472;27;45491;-71
2022/07/18 07:24:08;;;;;;;;;9.00;6.67;;;;;28.13;27.07;101817.50;5081212;27;48499;-71
2022/07/18 07:26:33;;;;;;;;;8.33;6.00;;;;;28.41;26.96;101815.31;5081591;27;45441;-71
2022/07/18 07:28:59;;;;;;;;;6.67;5.67;;;;;28.68;26.66;101819.63;5081507;28;45437;-71
2022/07/18 07:31:24;;;;;;;;;11.67;8.33;;;;;29.00;27.09;101814.25;5080375;27;64023;-71
2022/07/18 07:33:49;;;;;;;;;10.33;8.00;;;;;29.31;25.93;101808.88;5080493;27;71031;-70
2022/07/18 07:36:15;;;;;;;;;10.33;9.33;;;;;29.64;25.76;101805.16;5080382;27;64984;-70
2022/07/18 07:38:40;;;;;;;;;8.00;8.00;;;;;30.00;25.14;101804.66;5080475;27;62642;-70
2022/07/18 07:41:07;;;;;;;;;11.00;7.33;;;;;30.36;24.73;101801.28;5080894;27;45607;-71
2022/07/18 07:43:32;;;;;;;;;8.00;8.00;;;;;30.75;24.48;101802.16;5080829;27;46095;-71
2022/07/18 07:45:57;;;;;;;;;7.00;6.00;;;;;31.18;23.72;101792.31;5081019;27;45362;-72
2022/07/18 07:48:23;;;;;;;;;7.00;7.00;;;;;31.62;23.63;101782.31;5081005;27;45375;-71
2022/07/18 07:50:50;;;;;;;;;8.00;7.67;;;;;32.06;23.24;101782.34;5080784;27;45366;-71
2022/07/18 07:53:16;;;;;;;;;6.67;6.67;;;;;32.58;22.84;101783.94;5080623;27;46216;-72
2022/07/18 07:55:41;;;;;;;;;9.00;8.33;;;;;33.08;22.26;101780.25;5080366;27;45427;-72
2022/07/18 07:58:06;;;;;;;;;3.00;1.67;;;;;33.45;21.10;101789.16;5081160;27;45356;-72
2022/07/18 08:00:32;;;;;;;;;8.67;6.67;;;;;33.83;20.51;101783.16;5079619;28;45529;-72
2022/07/18 08:03:01;;;;;;;;;8.00;8.00;;;;;34.44;20.64;101779.44;5080446;27;46893;-72
2022/07/18 08:05:31;;;;;;;;;9.33;7.00;;;;;35.04;20.35;101784.03;5080328;28;45346;-72
2022/07/18 08:07:57;;;;;;;;;7.00;6.67;;;;;35.51;19.92;101785.81;5080332;27;45468;-73
2022/07/18 08:10:22;;;;;;;;;6.67;6.00;;;;;35.98;19.86;101780.06;5080569;27;45684;-73
2022/07/18 08:12:48;;;;;;;;;7.67;7.00;;;;;36.42;19.26;101781.03;5079491;27;72650;-72
2022/07/18 08:15:13;;;;;;;;;7.00;5.00;;;;;36.99;17.88;101775.38;5080562;27;45298;-73
2022/07/18 08:17:39;;;;;;;;;6.67;6.67;;;;;37.49;17.32;101776.28;5079471;28;68840;-72
2022/07/18 08:20:05;;;;;;;;;5.33;5.00;;;;;38.03;17.16;101777.22;5080047;28;45437;-73
2022/07/18 08:22:31;;;;;;;;;7.67;6.00;;;;;38.37;17.25;101777.56;5080350;27;46028;-73
2022/07/18 08:24:56;;;;;;;;;8.67;5.67;;;;;38.78;16.62;101774.91;5079585;27;62252;-73
2022/07/18 08:27:21;;;;;;;;;7.33;7.33;;;;;39.20;15.80;101776.69;5079791;27;55930;-74
2022/07/18 08:29:47;;;;;;;;;6.00;5.67;;;;;39.47;15.78;101770.56;5079215;28;69596;-73
2022/07/18 08:32:13;;;;;;;;;8.67;8.67;;;;;39.64;15.37;101781.75;5080065;27;52777;-73
2022/07/18 08:34:38;;;;;;;;;4.00;4.00;;;;;39.96;14.63;101784.88;5078752;28;45525;-74
2022/07/18 08:37:04;;;;;;;;;8.67;8.67;;;;;40.09;14.33;101775.38;5079340;27;68569;-73
2022/07/18 08:39:29;;;;;;;;;6.33;6.33;;;;;40.22;15.42;101784.47;5079894;27;45519;-72
2022/07/18 08:41:56;;;;;;;;;4.67;4.00;;;;;40.51;13.51;101785.22;5079129;27;72538;-73
2022/07/18 08:44:21;;;;;;;;;7.67;7.67;;;;;40.89;14.76;101782.72;5078715;28;45412;-73
2022/07/18 08:46:51;;;;;;;;;4.33;3.67;;;;;41.37;14.53;101788.66;5079426;27;63070;-73
2022/07/18 08:49:17;;;;;;;;;8.00;8.00;;;;;41.75;13.94;101784.09;5080270;27;45492;-73
2022/07/18 08:51:43;;;;;;;;;9.33;7.67;;;;;42.11;13.55;101782.50;5079943;27;45411;-73
2022/07/18 08:54:09;;;;;;;;;8.33;8.33;;;;;42.45;13.28;101778.56;5078074;28;45460;-73
2022/07/18 08:56:34;;;;;;;;;7.67;7.00;;;;;42.62;12.77;101784.84;5080017;27;45424;-72
2022/07/18 08:59:03;;;;;;;;;6.00;6.00;;;;;42.67;12.97;101783.22;5079297;27;52477;-72
2022/07/18 09:01:29;;;;;;;;;2.67;1.67;;;;;42.58;12.76;101777.25;5079584;27;46226;-72
2022/07/18 09:06:46;;;;;;;;;4.33;4.33;;;;;42.58;11.98;101780.06;5080021;28;45364;-72
2022/07/18 09:09:14;;;;;;;;;8.33;7.67;;;;;42.70;12.18;101777.06;5079770;27;45310;-72
2022/07/18 09:11:50;;;;;;;;;5.00;3.33;;;;;43.03;12.26;101778.66;5079796;27;46346;-73
2022/07/18 09:14:38;;;;;;;;;6.00;4.67;;;;;43.46;12.29;101778.56;5078323;28;45588;-72
2022/07/18 09:17:26;;;;;;;;;7.00;7.00;;;;;43.71;11.59;101780.56;5079854;27;45413;-72
2022/07/18 09:20:04;;;;;;;;;9.00;9.00;;;;;43.79;11.05;101784.78;5079897;27;45522;-73
2022/07/18 09:22:35;;;;;;;;;10.33;9.67;;;;;43.94;10.87;101778.41;5079573;27;46427;-73
2022/07/18 09:25:02;;;;;;;;;11.00;10.67;;;;;44.30;10.75;101781.16;5079440;27;45743;-72
2022/07/18 09:27:30;;;;;;;;;10.00;9.33;;;;;44.77;10.45;101776.34;5079767;27;45408;-73
2022/07/18 09:30:21;;;;;;;;;6.33;5.00;;;;;45.05;11.14;101779.63;5079191;28;45384;-73
2022/07/18 09:32:51;;;;;;;;;5.00;5.00;;;;;45.26;10.72;101784.03;5083134;27;45351;-72
2022/07/18 09:35:27;;;;;;;;;2.67;2.67;;;;;45.41;10.10;101785.06;5083286;27;45414;-73
2022/07/18 09:38:10;;;;;;;;;5.00;5.00;;;;;45.62;10.50;101780.22;5083248;27;45389;-73
2022/07/18 09:40:37;;;;;;;;;8.67;7.00;;;;;45.89;9.74;101787.31;5082832;27;45398;-72
2022/07/18 09:43:04;;;;;;;;;9.33;8.00;;;;;46.22;9.71;101782.81;5082919;27;45310;-73
2022/07/18 09:45:35;;;;;;;;;5.67;4.67;;;;;46.63;9.74;101783.56;5083087;27;45322;-72
2022/07/18 09:48:05;;;;;;;;;6.00;5.67;;;;;46.91;9.38;101781.00;5083285;27;45355;-74
2022/07/18 09:50:49;;;;;;;;;5.33;5.33;;;;;47.18;9.47;101786.84;5083169;27;45464;-74
2022/07/18 09:53:19;;;;;;;;;5.00;5.00;;;;;47.34;9.22;101783.81;5082678;27;46431;-74
2022/07/18 09:55:50;;;;;;;;;7.00;4.00;;;;;47.38;8.81;101784.88;5082901;27;45287;-73
2022/07/18 09:58:18;;;;;;;;;4.67;4.67;;;;;47.22;8.78;101781.44;5083087;27;45397;-74
2022/07/18 10:00:43;;;;;;;;;4.00;4.00;;;;;47.11;8.96;101780.78;5081603;28;45650;-74
2022/07/18 10:03:09;;;;;;;;;3.67;3.67;;;;;47.22;9.35;101773.88;5082549;28;45979;-74
2022/07/18 10:05:36;;;;;;;;;3.33;3.33;;;;;47.34;8.70;101764.09;5082704;27;45395;-74
2022/07/18 10:08:04;;;;;;;;;8.00;6.00;;;;;47.49;9.08;101772.34;5082851;27;45315;-75
2022/07/18 10:10:30;;;;;;;;;8.33;7.00;;;;;47.59;8.85;101765.75;5082014;27;45622;-74
2022/07/18 10:12:58;;;;;;;;;4.00;3.00;;;;;47.75;8.48;101763.50;5082577;27;45393;-74
2022/07/18 10:15:26;;;;;;;;;5.33;4.33;;;;;47.65;8.64;101760.84;5082472;27;45446;-75
2022/07/18 10:17:51;;;;;;;;;5.00;5.00;;;;;47.78;9.03;101759.22;5082774;27;45288;-75
2022/07/18 10:20:17;;;;;;;;;3.67;3.67;;;;;47.94;7.62;101762.66;5082634;27;45325;-74
2022/07/18 10:22:43;;;;;;;;;3.00;3.00;;;;;48.27;8.24;101749.41;5082645;28;45396;-74
2022/07/18 10:25:13;;;;;;;;;5.00;5.00;;;;;48.58;8.10;101750.78;5080784;28;45437;-75
2022/07/18 10:27:52;;;;;;;;;5.67;4.67;;;;;48.66;7.89;101753.72;5082662;27;45303;-74
2022/07/18 10:30:19;;;;;;;;;4.67;4.67;;;;;48.71;8.01;101746.28;5082435;27;45385;-74
2022/07/18 10:32:45;;;;;;;;;5.00;4.33;;;;;48.83;8.05;101749.44;5080714;28;45517;-75
2022/07/18 10:35:15;;;;;;;;;4.33;4.33;;;;;48.76;8.35;101744.19;5082319;27;45347;-74
2022/07/18 10:37:40;;;;;;;;;3.67;3.67;;;;;48.52;7.86;101748.03;5082093;27;45244;-75
2022/07/18 10:40:28;;;;;;;;;3.67;3.67;;;;;48.48;8.10;101746.19;5080914;28;45413;-74
2022/07/18 10:43:31;;;;;;;;;3.00;3.00;;;;;48.48;8.10;101747.00;5082009;27;46308;-74
2022/07/18 10:45:56;;;;;;;;;7.00;6.67;;;;;48.58;8.48;101739.50;5081971;27;45296;-75
2022/07/18 10:48:46;;;;;;;;;4.33;3.00;;;;;48.80;7.44;101739.63;5082162;27;45431;-74
2022/07/18 10:51:13;;;;;;;;;9.33;7.67;;;;;49.04;7.73;101735.72;5082233;27;45495;-75
2022/07/18 10:53:53;;;;;;;;;6.00;6.00;;;;;49.13;8.34;101738.63;5081812;27;45342;-75
2022/07/18 10:56:28;;;;;;;;;7.33;6.33;;;;;48.76;8.46;101734.91;5082186;27;45342;-74
2022/07/18 10:58:59;;;;;;;;;6.33;6.33;;;;;48.84;8.20;101735.00;5082128;27;45388;-75
2022/07/18 11:01:25;;;;;;;;;5.00;5.00;;;;;49.06;8.68;101735.41;5080613;28;45417;-74
2022/07/18 11:04:26;;;;;;;;;6.33;6.33;;;;;49.22;7.70;101733.06;5081687;27;45485;-74
2022/07/18 11:07:14;;;;;;;;;5.00;4.67;;;;;49.25;8.41;101729.59;5081483;27;45434;-75
2022/07/18 11:09:45;;;;;;;;;4.33;4.33;;;;;49.22;8.36;101735.88;5081762;27;45286;-75
2022/07/18 11:12:21;;;;;;;;;5.00;5.00;;;;;49.32;8.45;101732.84;5081630;27;45325;-76
2022/07/18 11:15:10;;;;;;;;;4.67;4.67;;;;;49.71;7.38;101734.16;5081398;28;46288;-75
2022/07/18 11:17:51;;;;;;;;;5.00;5.00;;;;;49.94;7.27;101732.16;5081482;27;45245;-75
2022/07/18 11:20:24;;;;;;;;;5.00;5.00;;;;;50.13;6.87;101737.59;5081687;27;45444;-75
2022/07/18 11:22:50;;;;;;;;;6.67;6.33;;;;;50.21;6.89;101723.81;5080097;28;45580;-75